Time;durP1;ratioP1;P1;durP2;ratioP2;P2;SDS_P1;SDS_P2;PMS_P1;PMS_P2;Temp;Humidity;BMP_temperature;BMP_pressure;BME280_temperature;BME280_humidity;BME280_pressure;Samples;Min_cycle;Max_cycle;Signal;HPM_P1;HPM_P2
2022/05/24 00:02:04;;;;;;;3.20;2.87;;;22.90;60.50;24.10;99437.00;;;;4988729;28;20686;-49
2022/05/24 00:04:30;;;;;;;3.03;2.83;;;22.80;60.40;24.10;99427.00;;;;4988883;28;20176;-49
2022/05/24 00:06:56;;;;;;;3.20;2.90;;;22.80;60.70;24.00;99421.00;;;;4988749;28;20182;-50
2022/05/24 00:09:22;;;;;;;3.30;2.63;;;22.80;62.10;24.00;99432.00;;;;4988134;28;20295;-50
2022/05/24 00:11:48;;;;;;;2.90;2.70;;;22.80;62.10;24.00;99429.00;;;;4988119;28;20242;-48
2022/05/24 00:14:13;;;;;;;2.80;2.60;;;22.80;62.00;23.90;99418.00;;;;4987961;28;20176;-49
2022/05/24 00:16:39;;;;;;;2.90;2.70;;;22.80;61.90;23.90;99421.00;;;;4988390;28;20711;-48
2022/05/24 00:19:05;;;;;;;3.30;3.00;;;22.80;61.90;23.90;99420.00;;;;4988154;28;20433;-49
2022/05/24 00:21:31;;;;;;;4.13;3.00;;;22.80;61.50;23.90;99421.00;;;;4988158;28;20754;-49
2022/05/24 00:23:56;;;;;;;2.70;2.50;;;22.80;61.50;23.90;99419.00;;;;4987999;28;20223;-49
2022/05/24 00:26:30;;;;;;;3.10;2.80;;;22.80;61.30;23.90;99421.00;;;;4988077;28;20188;-49
2022/05/24 00:28:55;;;;;;;3.20;2.70;;;22.80;61.10;23.90;99434.00;;;;4986726;28;20696;-50
2022/05/24 00:31:21;;;;;;;2.77;2.50;;;22.80;61.10;23.90;99424.00;;;;4988076;28;20188;-48
2022/05/24 00:33:47;;;;;;;3.10;2.80;;;22.80;61.20;23.90;99429.00;;;;4988049;28;20160;-51
2022/05/24 00:36:12;;;;;;;3.37;2.60;;;22.70;60.80;23.90;99420.00;;;;4991123;28;20179;-49
2022/05/24 00:38:39;;;;;;;2.90;2.70;;;22.70;60.80;23.90;99418.00;;;;4991012;28;20165;-49
2022/05/24 00:41:27;;;;;;;2.93;2.73;;;22.70;60.80;23.90;99414.00;;;;4989803;28;20539;-49
2022/05/24 00:44:03;;;;;;;2.80;2.60;;;22.70;60.80;23.80;99411.00;;;;4987739;28;20176;-50
2022/05/24 00:46:44;;;;;;;3.27;2.90;;;22.70;60.80;23.80;99421.00;;;;4986627;28;20178;-50
2022/05/24 00:49:15;;;;;;;4.27;2.73;;;22.70;60.80;23.80;99412.00;;;;4986340;28;20303;-50
2022/05/24 00:51:47;;;;;;;3.30;2.70;;;22.70;60.80;23.80;99410.00;;;;4987755;28;20283;-50
2022/05/24 00:54:13;;;;;;;6.37;2.77;;;22.70;60.90;23.80;99402.00;;;;4986644;28;20165;-49
2022/05/24 00:57:31;;;;;;;2.87;2.67;;;22.70;60.90;23.80;99395.00;;;;4987593;28;20168;-49
2022/05/24 01:00:13;;;;;;;3.40;3.10;;;22.70;61.00;23.80;99404.00;;;;5004019;28;21067;-48
2022/05/24 01:02:41;;;;;;;2.97;2.73;;;22.70;60.90;23.80;99399.00;;;;4988125;28;20184;-49
2022/05/24 01:05:08;;;;;;;2.90;2.70;;;22.70;60.80;23.80;99383.00;;;;4986946;28;20279;-49
2022/05/24 01:07:34;;;;;;;2.90;2.70;;;22.70;60.80;23.80;99384.00;;;;4985906;28;20179;-49
2022/05/24 01:10:03;;;;;;;2.80;2.60;;;22.70;60.80;23.80;99384.00;;;;4987206;28;20188;-49
2022/05/24 01:12:34;;;;;;;2.93;2.70;;;22.70;60.70;23.80;99388.00;;;;4986280;28;20653;-49
2022/05/24 01:15:02;;;;;;;3.10;2.80;;;22.70;60.70;23.80;99387.00;;;;4986093;28;20157;-49
2022/05/24 01:17:27;;;;;;;3.20;2.90;;;22.60;60.60;23.80;99387.00;;;;4985879;28;20172;-50
2022/05/24 01:19:53;;;;;;;3.33;2.70;;;22.70;60.70;23.80;99388.00;;;;4986075;28;20188;-48
2022/05/24 01:22:36;;;;;;;2.90;2.70;;;22.70;60.70;23.80;99392.00;;;;4986370;28;20184;-49
2022/05/24 01:25:27;;;;;;;2.90;2.70;;;22.70;60.70;23.80;99394.00;;;;4986173;28;20175;-49
2022/05/24 01:27:53;;;;;;;2.97;2.67;;;22.70;60.70;23.80;99400.00;;;;4987213;28;20168;-48
2022/05/24 01:30:19;;;;;;;3.20;2.90;;;22.60;60.50;23.80;99405.00;;;;4987314;28;20195;-49
2022/05/24 01:38:15;;;;;;;2.93;2.67;;;22.60;60.50;23.80;99396.00;;;;4986985;28;20707;-49
2022/05/24 01:40:42;;;;;;;2.90;2.70;;;22.60;60.50;23.80;99400.00;;;;4986914;28;20192;-48
2022/05/24 01:43:08;;;;;;;3.03;2.73;;;22.60;60.50;23.80;99399.00;;;;4985482;28;20849;-49
2022/05/24 01:45:47;;;;;;;3.03;2.73;;;22.50;60.40;23.80;99396.00;;;;4985804;28;20179;-49
2022/05/24 01:48:14;;;;;;;3.00;2.70;;;22.50;60.40;23.80;99404.00;;;;4985577;28;20168;-48
2022/05/24 01:50:41;;;;;;;3.10;2.90;;;22.50;60.40;23.70;99404.00;;;;4985162;28;20204;-48
2022/05/24 01:53:11;;;;;;;3.30;3.00;;;22.50;60.40;23.70;99410.00;;;;4985403;28;20172;-48
2022/05/24 01:55:47;;;;;;;3.53;3.10;;;22.50;60.40;23.70;99400.00;;;;4985547;28;20165;-48
2022/05/24 01:58:14;;;;;;;3.30;3.00;;;22.50;60.30;23.70;99401.00;;;;4986512;28;20546;-48
2022/05/24 02:00:44;;;;;;;3.20;2.90;;;22.50;60.30;23.70;99399.00;;;;4985630;28;20193;-48
2022/05/24 02:03:09;;;;;;;2.90;2.70;;;22.50;60.30;23.70;99403.00;;;;4985869;28;20169;-48
2022/05/24 02:05:40;;;;;;;2.90;2.70;;;22.50;60.30;23.70;99402.00;;;;4985256;28;20641;-50
2022/05/24 02:08:08;;;;;;;3.20;2.90;;;22.50;60.50;23.70;99404.00;;;;4985169;28;20168;-49
2022/05/24 02:10:39;;;;;;;3.20;2.90;;;22.50;60.40;23.70;99404.00;;;;4986495;28;20681;-49
2022/05/24 02:13:05;;;;;;;3.30;3.00;;;22.40;60.40;23.50;99403.00;;;;4985249;28;20157;-49
2022/05/24 02:15:35;;;;;;;3.23;2.83;;;22.50;60.40;23.70;99406.00;;;;4987639;28;20180;-49
2022/05/24 02:18:08;;;;;;;3.00;2.80;;;22.50;60.40;23.70;99413.00;;;;4989187;28;20172;-48
2022/05/24 02:20:37;;;;;;;2.70;2.50;;;22.50;60.50;23.70;99403.00;;;;4990240;28;20204;-49
2022/05/24 02:23:03;;;;;;;2.97;2.77;;;22.40;60.30;23.70;99349.00;;;;4990746;28;20263;-49
2022/05/24 02:25:45;;;;;;;2.80;2.60;;;22.40;60.20;23.70;99407.00;;;;4990442;28;20654;-49
2022/05/24 02:28:12;;;;;;;2.90;2.70;;;22.40;60.30;23.60;99395.00;;;;4990239;28;20160;-49
2022/05/24 02:30:53;;;;;;;3.07;2.77;;;22.40;60.30;23.60;99400.00;;;;4990251;28;20189;-50
2022/05/24 02:33:20;;;;;;;2.93;2.70;;;22.40;60.30;23.60;99388.00;;;;4990683;28;20160;-49
2022/05/24 02:35:46;;;;;;;3.00;2.70;;;22.40;60.30;23.60;99406.00;;;;4990438;28;20172;-49
2022/05/24 02:38:12;;;;;;;2.80;2.60;;;22.40;60.30;23.60;99406.00;;;;4990319;28;20172;-49
2022/05/24 02:43:21;;;;;;;3.27;2.70;;;22.40;60.30;23.60;99412.00;;;;4990120;28;20680;-50
2022/05/24 02:45:47;;;;;;;3.43;2.50;;;22.40;60.20;23.60;99396.00;;;;4990255;28;20176;-49
2022/05/24 02:48:13;;;;;;;2.97;2.77;;;22.30;60.10;23.60;99405.00;;;;4990282;28;20168;-50
2022/05/24 02:50:38;;;;;;;3.10;2.80;;;22.40;60.20;23.60;99414.00;;;;4989731;28;20663;-49
2022/05/24 02:53:04;;;;;;;2.90;2.60;;;22.30;60.10;23.60;99389.00;;;;4990169;28;20199;-50
2022/05/24 02:55:30;;;;;;;2.87;2.67;;;22.40;60.40;23.60;99394.00;;;;4990247;28;20176;-49
2022/05/24 02:57:56;;;;;;;2.60;2.40;;;22.40;60.50;23.50;99387.00;;;;4989881;28;20183;-48
2022/05/24 03:00:23;;;;;;;2.83;2.50;;;22.40;60.30;23.50;99399.00;;;;4990053;28;20188;-48
2022/05/24 03:02:49;;;;;;;2.60;2.40;;;22.30;60.30;23.50;99398.00;;;;4990302;28;20172;-49
2022/05/24 03:05:15;;;;;;;2.60;2.40;;;22.30;60.20;23.50;99402.00;;;;4989952;28;20180;-49
2022/05/24 03:10:25;;;;;;;2.60;2.40;;;22.30;60.20;23.50;99396.00;;;;4989602;28;20207;-50
2022/05/24 03:15:40;;;;;;;2.70;2.50;;;22.30;60.10;23.50;99391.00;;;;4989498;28;20200;-49
2022/05/24 03:18:07;;;;;;;2.50;2.30;;;22.30;60.10;23.50;99402.00;;;;4980349;28;20177;-48
2022/05/24 03:20:33;;;;;;;2.47;2.27;;;22.30;60.00;23.50;99402.00;;;;4983406;28;20681;-48
2022/05/24 03:22:59;;;;;;;2.70;2.40;;;22.30;60.20;23.40;99395.00;;;;4988946;28;20273;-49
2022/05/24 03:25:25;;;;;;;4.27;2.40;;;22.20;60.20;23.40;99396.00;;;;4989031;28;20649;-49
2022/05/24 03:27:50;;;;;;;3.37;2.37;;;22.20;60.20;23.40;99405.00;;;;4988682;28;20180;-49
2022/05/24 03:30:16;;;;;;;4.07;2.30;;;22.20;60.00;23.40;99340.00;;;;4988834;28;20200;-50
2022/05/24 03:32:42;;;;;;;2.53;2.20;;;22.20;59.90;23.40;99404.00;;;;4988875;28;20538;-50
2022/05/24 03:35:10;;;;;;;3.30;2.50;;;22.20;59.80;23.40;99406.00;;;;4989022;28;20180;-49
2022/05/24 03:37:38;;;;;;;3.97;2.60;;;22.20;59.70;23.40;99402.00;;;;4988443;28;20199;-48
2022/05/24 03:40:05;;;;;;;2.83;2.40;;;22.20;59.70;23.40;99411.00;;;;4988707;28;20680;-50
2022/05/24 03:42:31;;;;;;;2.43;2.23;;;22.20;59.60;23.40;99416.00;;;;4987945;28;20196;-49
2022/05/24 03:44:56;;;;;;;2.50;2.30;;;22.20;59.60;23.40;99419.00;;;;4988589;28;20212;-48
2022/05/24 03:47:22;;;;;;;3.00;2.30;;;22.20;59.50;23.40;99418.00;;;;4988399;28;20172;-49
2022/05/24 03:49:48;;;;;;;2.80;2.43;;;22.20;59.50;23.40;99416.00;;;;4987887;28;20599;-49
2022/05/24 03:52:14;;;;;;;2.50;2.30;;;22.20;59.40;23.30;99423.00;;;;4988060;28;20192;-49
2022/05/24 03:54:39;;;;;;;2.73;2.30;;;22.20;59.40;23.40;99409.00;;;;4988874;28;20535;-49
2022/05/24 03:59:49;;;;;;;2.60;2.30;;;22.20;59.30;23.30;99421.00;;;;4988290;28;20611;-49
2022/05/24 04:02:15;;;;;;;2.53;2.30;;;22.10;59.20;23.30;99415.00;;;;4988467;28;20180;-50
2022/05/24 04:04:41;;;;;;;2.77;2.50;;;22.20;59.20;23.30;99415.00;;;;4992269;28;20672;-48
2022/05/24 04:07:07;;;;;;;2.70;2.40;;;22.10;59.10;23.30;99428.00;;;;4990561;28;20184;-49
2022/05/24 04:09:33;;;;;;;2.57;2.37;;;22.10;59.10;23.30;99430.00;;;;4987850;28;20197;-50
2022/05/24 04:11:59;;;;;;;3.50;2.60;;;22.10;59.10;23.30;99439.00;;;;4988150;28;20203;-48
2022/05/24 04:14:24;;;;;;;2.50;2.30;;;22.10;59.10;23.30;99432.00;;;;4988140;28;20172;-49
2022/05/24 04:16:52;;;;;;;2.57;2.37;;;22.10;59.00;23.30;99441.00;;;;4988134;28;20469;-49
2022/05/24 04:19:17;;;;;;;3.63;2.30;;;22.10;58.90;23.30;99441.00;;;;4987340;28;20192;-50
2022/05/24 04:21:43;;;;;;;2.50;2.30;;;22.10;58.90;23.30;99438.00;;;;4987799;28;20215;-49
2022/05/24 04:24:09;;;;;;;2.60;2.30;;;22.10;58.90;23.30;99453.00;;;;4987635;28;20523;-48
2022/05/24 04:26:34;;;;;;;2.70;2.50;;;22.10;58.90;23.30;99468.00;;;;4986614;28;20311;-49
2022/05/24 04:29:00;;;;;;;2.83;2.60;;;22.10;58.90;23.20;99468.00;;;;4987343;28;20542;-51
2022/05/24 04:31:26;;;;;;;3.43;2.40;;;22.10;59.00;23.20;99467.00;;;;4987560;28;20209;-50
2022/05/24 04:33:52;;;;;;;3.83;2.40;;;22.10;59.00;23.20;99465.00;;;;4987111;28;20179;-49
2022/05/24 04:36:17;;;;;;;3.17;2.60;;;22.00;58.90;23.20;99460.00;;;;4987975;28;20176;-49
2022/05/24 04:38:43;;;;;;;7.33;2.70;;;22.10;59.00;23.20;99449.00;;;;4987065;28;20250;-49
2022/05/24 04:43:53;;;;;;;4.90;2.63;;;22.00;58.90;23.20;99454.00;;;;4987382;28;20444;-49
2022/05/24 04:46:19;;;;;;;4.50;2.67;;;22.00;58.90;23.20;99467.00;;;;4987589;28;20165;-50
2022/05/24 04:48:44;;;;;;;5.60;2.70;;;22.00;59.00;23.20;99459.00;;;;4987329;28;20172;-49
2022/05/24 04:51:10;;;;;;;10.63;3.00;;;22.00;58.90;23.10;99478.00;;;;4987170;28;20211;-50
2022/05/24 04:53:36;;;;;;;6.43;2.73;;;21.90;59.20;23.10;99489.00;;;;4987294;28;20218;-49
2022/05/24 04:56:02;;;;;;;8.07;3.07;;;21.90;59.10;23.10;99494.00;;;;4986961;28;20196;-48
2022/05/24 04:58:27;;;;;;;5.13;2.50;;;21.90;59.10;23.10;99501.00;;;;4987176;28;20313;-49
2022/05/24 05:00:53;;;;;;;8.10;2.80;;;21.90;59.10;23.10;99510.00;;;;4986665;28;20207;-49
2022/05/24 05:03:19;;;;;;;3.87;2.70;;;21.90;59.40;23.10;99520.00;;;;4987058;28;20850;-49
2022/05/24 05:05:47;;;;;;;8.00;3.40;;;21.90;59.40;23.10;99523.00;;;;4986652;28;20262;-49
2022/05/24 05:08:13;;;;;;;4.90;2.83;;;21.90;59.30;23.10;99535.00;;;;4986850;28;20267;-50
2022/05/24 05:10:39;;;;;;;5.43;2.93;;;21.90;59.30;23.10;99550.00;;;;4986485;28;20200;-49
2022/05/24 05:13:05;;;;;;;5.17;2.70;;;21.90;59.30;23.10;99560.00;;;;4986669;28;20617;-49
2022/05/24 05:15:34;;;;;;;4.13;2.80;;;21.90;59.30;23.10;99564.00;;;;4984907;28;20247;-49
2022/05/24 05:18:13;;;;;;;4.10;2.70;;;21.90;59.20;23.10;99570.00;;;;4986579;28;20172;-50
2022/05/24 05:20:41;;;;;;;5.03;2.87;;;21.90;59.30;23.10;99570.00;;;;4984978;28;20228;-49
2022/05/24 05:23:12;;;;;;;4.67;2.60;;;21.90;59.20;23.10;99576.00;;;;4986508;28;20828;-49
2022/05/24 05:25:38;;;;;;;4.63;2.73;;;21.90;59.40;23.00;99577.00;;;;4986998;28;20247;-49
2022/05/24 05:28:04;;;;;;;2.90;2.60;;;21.90;59.30;23.00;99579.00;;;;4986451;28;20653;-48
2022/05/24 05:33:15;;;;;;;5.00;2.47;;;21.90;59.30;23.00;99593.00;;;;4986712;28;20227;-48
2022/05/24 05:35:44;;;;;;;4.53;2.47;;;21.80;59.20;23.00;99596.00;;;;4988554;28;20169;-48
2022/05/24 05:38:09;;;;;;;3.70;2.47;;;21.80;59.20;23.00;99587.00;;;;4999457;28;20264;-47
2022/05/24 05:40:35;;;;;;;3.93;2.43;;;21.80;59.20;23.00;99594.00;;;;4992562;28;20219;-49
2022/05/24 05:43:01;;;;;;;3.67;2.70;;;21.80;59.10;23.00;99592.00;;;;4986297;28;20176;-49
2022/05/24 05:45:27;;;;;;;3.70;2.63;;;21.80;59.80;23.00;99596.00;;;;4986499;28;20177;-49
2022/05/24 05:47:53;;;;;;;4.33;2.30;;;21.80;59.20;23.00;99592.00;;;;4986055;28;20180;-49
2022/05/24 05:50:20;;;;;;;4.57;2.40;;;21.80;59.10;23.00;99597.00;;;;4985383;28;20222;-49
2022/05/24 05:52:46;;;;;;;3.57;2.30;;;21.80;59.10;23.00;99597.00;;;;4986177;28;20243;-48
2022/05/24 05:55:12;;;;;;;3.33;2.57;;;21.80;59.20;23.00;99599.00;;;;4986665;28;20231;-50
2022/05/24 05:57:38;;;;;;;4.77;2.60;;;21.80;59.30;23.00;99613.00;;;;4986333;28;20179;-50
2022/05/24 06:00:08;;;;;;;3.70;2.70;;;21.80;59.20;23.00;99612.00;;;;4985667;28;20696;-49
2022/05/24 06:02:34;;;;;;;2.83;2.40;;;21.80;59.30;22.90;99639.00;;;;4985187;28;20323;-48
2022/05/24 06:05:00;;;;;;;2.53;2.20;;;21.70;59.30;22.90;99642.00;;;;4986611;28;20172;-48
2022/05/24 06:07:26;;;;;;;3.47;2.67;;;21.70;59.20;22.90;99637.00;;;;4986372;28;20525;-48
2022/05/24 06:09:52;;;;;;;3.50;2.40;;;21.70;59.10;22.90;99641.00;;;;4985784;28;20744;-51
2022/05/24 06:12:17;;;;;;;3.63;2.20;;;21.70;59.00;22.90;99658.00;;;;4985932;28;20222;-49
2022/05/24 06:14:43;;;;;;;2.80;2.30;;;21.70;59.00;22.90;99647.00;;;;4986159;28;20169;-49
2022/05/24 06:17:10;;;;;;;6.50;2.63;;;21.70;59.00;22.90;99648.00;;;;4985700;28;20246;-49
2022/05/24 06:19:36;;;;;;;4.13;2.30;;;21.70;59.10;22.90;99657.00;;;;4985557;28;20222;-49
2022/05/24 06:22:02;;;;;;;5.37;2.53;;;21.70;59.40;22.90;99665.00;;;;4984508;28;20610;-49
2022/05/24 06:24:28;;;;;;;4.60;2.20;;;21.70;59.20;22.80;99670.00;;;;4984951;28;20169;-49
2022/05/24 06:26:53;;;;;;;2.90;2.23;;;21.70;59.10;22.80;99658.00;;;;4985857;28;20200;-48
2022/05/24 06:29:19;;;;;;;3.80;2.37;;;21.70;59.10;22.80;99666.00;;;;4985445;28;20192;-49
2022/05/24 06:31:45;;;;;;;3.27;2.57;;;21.70;58.90;22.80;99659.00;;;;4985134;28;20596;-49
2022/05/24 06:34:11;;;;;;;5.23;2.40;;;21.70;58.90;22.80;99663.00;;;;4985957;28;20816;-49
2022/05/24 06:36:37;;;;;;;4.40;2.30;;;21.70;58.90;22.80;99661.00;;;;4985111;28;20600;-48
2022/05/24 06:39:03;;;;;;;3.37;2.27;;;21.60;58.90;22.80;99668.00;;;;4985874;28;20267;-49
2022/05/24 06:41:28;;;;;;;2.80;2.20;;;21.60;58.90;22.80;99685.00;;;;4985322;28;20268;-49
2022/05/24 06:43:54;;;;;;;5.17;2.13;;;21.70;59.00;22.80;99685.00;;;;4985834;28;20200;-48
2022/05/24 06:46:20;;;;;;;2.63;2.40;;;21.60;58.80;22.80;99686.00;;;;4985760;28;20172;-48
2022/05/24 06:48:46;;;;;;;3.53;2.20;;;21.60;58.90;22.80;99671.00;;;;4985507;28;20183;-48
2022/05/24 06:51:20;;;;;;;5.77;3.10;;;21.60;59.00;22.80;99669.00;;;;4985259;28;20219;-48
2022/05/24 06:53:47;;;;;;;7.33;3.23;;;21.60;59.30;22.80;99668.00;;;;4969558;28;20175;-48
2022/05/24 06:56:13;;;;;;;4.53;2.90;;;21.60;59.40;22.80;99671.00;;;;4976323;28;20225;-48
2022/05/24 06:58:39;;;;;;;3.67;2.70;;;21.60;59.60;22.80;99677.00;;;;4975305;28;20873;-49
2022/05/24 07:03:57;;;;;;;5.67;2.87;;;21.60;59.50;22.70;99675.00;;;;4969075;28;20551;-49
2022/05/24 07:06:23;;;;;;;8.73;3.07;;;21.60;60.30;22.70;99692.00;;;;4973153;28;20180;-49
2022/05/24 07:08:50;;;;;;;5.50;2.60;;;21.60;60.80;22.70;99690.00;;;;4911961;28;20270;-49
2022/05/24 07:11:18;;;;;;;5.90;2.73;;;21.50;60.30;22.70;99695.00;;;;4989456;28;20246;-48
2022/05/24 07:13:44;;;;;;;7.83;2.80;;;21.60;60.20;22.70;99688.00;;;;4989267;28;20279;-49
2022/05/24 07:16:09;;;;;;;6.23;2.60;;;21.60;60.20;22.70;99703.00;;;;4988655;28;20176;-49
2022/05/24 07:18:36;;;;;;;6.00;2.60;;;21.60;60.20;22.70;99711.00;;;;4987523;28;20573;-49
2022/05/24 07:21:02;;;;;;;4.70;2.70;;;21.60;60.20;22.70;99714.00;;;;4988833;28;20538;-50
2022/05/24 07:23:28;;;;;;;6.03;3.00;;;21.60;60.20;22.70;99728.00;;;;4989583;28;20183;-49
2022/05/24 07:25:54;;;;;;;7.43;2.63;;;21.60;60.20;22.70;99730.00;;;;4989150;28;20187;-50
2022/05/24 07:28:20;;;;;;;6.87;2.80;;;21.50;60.10;22.70;99728.00;;;;4988146;28;20176;-49
2022/05/24 07:30:47;;;;;;;6.33;2.80;;;21.50;60.10;22.70;99729.00;;;;4994005;28;20196;-48
2022/05/24 07:33:13;;;;;;;4.87;2.60;;;21.50;60.10;22.70;99734.00;;;;4994831;28;20173;-48
2022/05/24 07:35:42;;;;;;;5.53;2.70;;;21.50;60.10;22.70;99750.00;;;;4989553;28;20206;-48
2022/05/24 07:38:11;;;;;;;8.40;3.00;;;21.50;60.10;22.70;99744.00;;;;4988096;28;20172;-49
2022/05/24 07:46:12;;;;;;;3.80;2.10;;;21.50;60.00;22.60;99732.00;;;;4989063;28;20184;-48
2022/05/24 07:48:37;;;;;;;6.23;2.27;;;21.50;60.00;22.60;99743.00;;;;4988650;28;20450;-49
2022/05/24 07:51:03;;;;;;;4.30;2.17;;;21.50;60.10;22.60;99741.00;;;;4988971;28;20473;-49
2022/05/24 07:53:29;;;;;;;3.47;2.20;;;21.50;60.00;22.60;99742.00;;;;4989134;28;20176;-48
2022/05/24 07:55:55;;;;;;;4.17;2.50;;;21.50;60.00;22.60;99738.00;;;;4989354;28;20169;-49
2022/05/24 07:58:21;;;;;;;3.80;2.53;;;21.40;59.90;22.40;99740.00;;;;4988542;28;20262;-48
2022/05/24 08:00:47;;;;;;;4.67;2.40;;;21.50;59.90;22.60;99739.00;;;;4988563;28;20202;-49
2022/05/24 08:03:13;;;;;;;4.37;2.40;;;21.40;59.90;22.60;99736.00;;;;4988759;28;20254;-49
2022/05/24 08:05:39;;;;;;;4.17;2.30;;;21.40;59.90;22.50;99743.00;;;;4988200;28;20187;-50
2022/05/24 08:08:07;;;;;;;3.03;1.93;;;21.40;59.90;22.60;99751.00;;;;4988677;28;20666;-49
2022/05/24 08:10:33;;;;;;;3.50;2.33;;;21.40;60.00;22.60;99754.00;;;;4988528;28;20295;-49
2022/05/24 08:12:59;;;;;;;2.93;2.23;;;21.40;60.00;22.60;99753.00;;;;4987456;28;20199;-49
2022/05/24 08:15:25;;;;;;;3.73;2.30;;;21.40;59.80;22.50;99747.00;;;;4988623;28;20215;-49
2022/05/24 08:17:51;;;;;;;3.03;2.20;;;21.40;59.90;22.60;99753.00;;;;4991096;28;20203;-50
2022/05/24 08:20:17;;;;;;;3.63;2.00;;;21.40;59.80;22.50;99740.00;;;;4988962;28;20271;-49
2022/05/24 08:22:43;;;;;;;2.73;2.20;;;21.40;59.80;22.50;99750.00;;;;4988269;28;20182;-49
2022/05/24 08:25:09;;;;;;;2.77;2.17;;;21.40;59.80;22.50;99755.00;;;;4988406;28;20172;-49
2022/05/24 08:27:35;;;;;;;4.03;2.10;;;21.30;59.80;22.50;99764.00;;;;4987933;28;20543;-49
2022/05/24 08:30:01;;;;;;;2.53;2.20;;;21.40;59.90;22.50;99773.00;;;;4988196;28;20188;-49
2022/05/24 08:32:27;;;;;;;3.20;2.17;;;21.40;59.80;22.50;99760.00;;;;4987872;28;20184;-50
2022/05/24 08:34:52;;;;;;;3.03;2.00;;;21.40;59.60;22.50;99767.00;;;;4987770;28;20179;-48
2022/05/24 08:37:18;;;;;;;2.77;1.93;;;21.40;59.70;22.50;99764.00;;;;4987652;28;20234;-49
2022/05/24 08:39:44;;;;;;;3.73;1.90;;;21.40;59.60;22.50;99769.00;;;;4987776;28;20535;-49
2022/05/24 08:42:37;;;;;;;3.03;2.23;;;21.30;59.60;22.50;99773.00;;;;4987923;28;20382;-49
2022/05/24 08:48:23;;;;;;;1.93;1.80;;;21.30;59.60;22.50;99768.00;;;;4986836;28;20234;-49
2022/05/24 08:51:15;;;;;;;2.07;1.73;;;21.40;59.60;22.50;99787.00;;;;4986583;28;20260;-49
2022/05/24 08:53:47;;;;;;;2.30;2.10;;;21.30;59.60;22.40;99788.00;;;;4971625;28;20163;-49
2022/05/24 08:56:18;;;;;;;2.13;1.93;;;21.30;59.60;22.40;99782.00;;;;4987827;28;20195;-49
2022/05/24 08:58:50;;;;;;;2.10;1.90;;;21.30;59.60;22.40;99780.00;;;;4985766;28;20648;-49
2022/05/24 09:01:23;;;;;;;2.60;1.90;;;21.30;59.60;22.40;99782.00;;;;4987353;28;20172;-49
2022/05/24 09:03:49;;;;;;;2.37;1.97;;;21.30;59.70;22.40;99783.00;;;;4970637;28;20672;-49
2022/05/24 09:06:43;;;;;;;2.13;1.90;;;21.30;59.50;22.40;99786.00;;;;4987239;28;20229;-48
2022/05/24 09:09:40;;;;;;;2.80;2.00;;;21.30;59.60;22.40;99795.00;;;;4985538;28;20194;-49
2022/05/24 09:12:33;;;;;;;2.20;2.00;;;21.30;59.50;22.40;99785.00;;;;4986952;28;20179;-49
2022/05/24 09:15:16;;;;;;;2.33;1.83;;;21.30;59.60;22.40;99792.00;;;;4985826;28;20175;-49
2022/05/24 09:18:07;;;;;;;2.30;2.10;;;21.30;59.60;22.40;99791.00;;;;4985666;28;20174;-50
2022/05/24 09:20:39;;;;;;;2.57;2.00;;;21.20;59.60;22.40;99819.00;;;;4985900;28;20207;-49
2022/05/24 09:23:15;;;;;;;2.20;1.80;;;21.30;59.60;22.40;99813.00;;;;4987180;28;20182;-48
2022/05/24 09:26:05;;;;;;;1.90;1.77;;;21.30;59.50;22.40;99823.00;;;;4985489;28;20646;-49
2022/05/24 09:28:52;;;;;;;2.40;1.87;;;21.30;59.50;22.40;99825.00;;;;4985231;28;20221;-49
2022/05/24 09:31:38;;;;;;;2.43;1.83;;;21.30;59.40;22.40;99824.00;;;;4986991;28;20184;-49
2022/05/24 09:34:25;;;;;;;2.00;1.80;;;21.30;59.40;22.40;99834.00;;;;4985868;28;20165;-49
2022/05/24 09:37:10;;;;;;;1.93;1.73;;;21.30;59.40;22.40;99835.00;;;;4986495;28;20491;-49
2022/05/24 09:39:38;;;;;;;1.80;1.70;;;21.20;59.40;22.40;99834.00;;;;4986858;28;20674;-50
2022/05/24 09:42:14;;;;;;;3.33;2.10;;;21.30;59.40;22.40;99839.00;;;;4985408;28;20176;-49
2022/05/24 09:44:59;;;;;;;2.10;1.90;;;21.30;59.40;22.40;99838.00;;;;4986501;28;20164;-50
2022/05/24 09:47:32;;;;;;;2.10;1.90;;;21.30;59.40;22.40;99843.00;;;;4986904;28;20202;-49
2022/05/24 09:50:37;;;;;;;2.10;1.90;;;21.20;59.40;22.40;99850.00;;;;4985353;28;20202;-49
2022/05/24 09:53:02;;;;;;;1.70;1.60;;;21.20;59.30;22.30;99857.00;;;;4984846;28;20206;-48
2022/05/24 09:55:53;;;;;;;1.60;1.50;;;21.20;59.30;22.40;99846.00;;;;4986541;28;20179;-49
2022/05/24 09:58:25;;;;;;;2.20;1.80;;;21.20;59.30;22.30;99856.00;;;;4969304;28;20207;-49
2022/05/24 10:01:05;;;;;;;2.07;1.70;;;21.20;59.30;22.30;99857.00;;;;4986324;28;20255;-50
2022/05/24 10:03:38;;;;;;;1.70;1.60;;;21.20;59.30;22.30;99860.00;;;;4986247;28;20216;-49
2022/05/24 10:06:23;;;;;;;1.80;1.70;;;21.20;59.30;22.30;99851.00;;;;4986147;28;20183;-49
2022/05/24 10:09:18;;;;;;;1.63;1.53;;;21.20;59.30;22.30;99850.00;;;;4986180;28;20163;-49
2022/05/24 10:11:50;;;;;;;1.70;1.60;;;21.20;59.20;22.30;99853.00;;;;4984964;28;20189;-50
2022/05/24 10:14:43;;;;;;;1.70;1.60;;;21.20;59.20;22.30;99860.00;;;;4985181;28;20164;-50
2022/05/24 10:17:41;;;;;;;1.83;1.63;;;21.20;59.30;22.30;99862.00;;;;4969309;28;20202;-49
2022/05/24 10:20:13;;;;;;;1.70;1.50;;;21.20;59.20;22.30;99854.00;;;;4984932;28;20673;-49
2022/05/24 10:23:02;;;;;;;1.67;1.57;;;21.20;59.30;22.30;99847.00;;;;4986622;28;20176;-49
2022/05/24 10:25:53;;;;;;;1.60;1.50;;;21.20;59.30;22.30;99871.00;;;;4971843;28;20166;-49
2022/05/24 10:28:45;;;;;;;1.50;1.40;;;21.20;59.40;22.30;99868.00;;;;4984762;28;20198;-50
2022/05/24 10:31:35;;;;;;;1.70;1.60;;;21.20;59.30;22.30;99868.00;;;;4968800;28;20226;-49
2022/05/24 10:40:08;;;;;;;1.60;1.50;;;21.20;59.40;22.30;99874.00;;;;4976272;28;20701;-50
2022/05/24 10:43:09;;;;;;;1.67;1.57;;;21.10;59.40;22.30;99871.00;;;;4973869;28;20158;-50
2022/05/24 10:45:50;;;;;;;1.67;1.57;;;21.20;59.40;22.30;99870.00;;;;4974205;28;20172;-49
2022/05/24 10:48:34;;;;;;;2.33;1.53;;;21.20;59.40;22.30;99867.00;;;;4988904;28;20704;-49
2022/05/24 10:51:13;;;;;;;1.60;1.50;;;21.20;59.20;22.30;99878.00;;;;4988835;28;20293;-49
2022/05/24 10:54:01;;;;;;;1.10;1.10;;;21.20;59.30;22.30;99875.00;;;;4973576;28;20263;-48
2022/05/24 10:56:38;;;;;;;1.73;1.60;;;21.20;59.30;22.30;99878.00;;;;4990664;28;20151;-49
2022/05/24 10:59:29;;;;;;;2.33;1.80;;;21.20;59.30;22.30;99882.00;;;;4988637;28;20199;-49
2022/05/24 11:02:00;;;;;;;1.53;1.43;;;21.20;59.30;22.30;99880.00;;;;4990136;28;20195;-50
2022/05/24 11:04:35;;;;;;;3.57;1.70;;;21.20;59.40;22.30;99863.00;;;;4907660;28;20204;-50
2022/05/24 11:07:06;;;;;;;6.17;1.60;;;21.20;59.30;22.30;99874.00;;;;4973771;28;20559;-49
2022/05/24 11:09:33;;;;;;;2.00;1.67;;;21.20;59.40;22.30;99881.00;;;;4988752;28;20200;-49
2022/05/24 11:12:05;;;;;;;4.70;1.83;;;21.20;59.30;22.30;99882.00;;;;4955554;28;20207;-49
2022/05/24 11:14:57;;;;;;;3.73;1.60;;;21.20;59.40;22.30;99877.00;;;;4987924;28;20178;-50
2022/05/24 11:17:23;;;;;;;1.83;1.60;;;21.20;59.40;22.30;99880.00;;;;4969478;28;20323;-50
2022/05/24 11:19:54;;;;;;;5.57;1.87;;;21.20;59.40;22.30;99887.00;;;;4988447;28;20737;-50
2022/05/24 11:22:40;;;;;;;1.73;1.53;;;21.20;59.50;22.30;99887.00;;;;4987907;28;20252;-50
2022/05/24 11:25:25;;;;;;;3.53;1.70;;;21.20;59.80;22.30;99893.00;;;;4973488;28;20155;-48
2022/05/24 11:28:01;;;;;;;2.07;1.80;;;21.20;59.70;22.30;99892.00;;;;4989121;28;20196;-49
2022/05/24 11:30:30;;;;;;;3.00;1.73;;;21.30;59.80;22.30;99887.00;;;;4989246;28;20218;-49
2022/05/24 11:33:06;;;;;;;3.77;1.60;;;21.30;59.70;22.30;99885.00;;;;4988928;28;20168;-49
2022/05/24 11:35:35;;;;;;;2.83;1.50;;;21.30;59.60;22.30;99889.00;;;;4989078;28;20229;-49
2022/05/24 11:38:23;;;;;;;5.97;1.80;;;21.30;59.60;22.40;99885.00;;;;4971095;28;20233;-49
2022/05/24 11:40:54;;;;;;;2.97;1.60;;;21.30;59.70;22.40;99893.00;;;;4988254;28;20756;-48
2022/05/24 11:43:35;;;;;;;1.80;1.60;;;21.30;59.60;22.40;99909.00;;;;4987900;28;20173;-50
2022/05/24 11:46:37;;;;;;;1.70;1.60;;;21.30;59.60;22.40;99895.00;;;;4988206;28;20182;-50
2022/05/24 11:49:33;;;;;;;1.90;1.60;;;21.40;59.60;22.40;99901.00;;;;4987157;28;20190;-49
2022/05/24 11:52:00;;;;;;;1.60;1.50;;;21.30;59.50;22.40;99902.00;;;;4986896;28;20235;-50